Jonestown, Pennsylvania
Current Conditions -  °F | °C
As of 10:28 AM on Friday 24 Oct 2014 (Local Time) from KMUI Reporting Station
Clear Clear  
Wind Chill: 61°   Ceiling: Unl
Heat Index: 61°   Visibility: 10mi
Dew Point: 45°   Wind: 13mph
Humidity: 55%   Direction: 280°W
Pressure: 29.93"   Gusts: 24mph
Location:  40.41°N, 76.48°W
Report Text: KMUI 241428Z AUTO 28011G21KT 230V010 10SM CLR 16/07 A2993 RMK AO2 WSHFT 25
Loading
Personal Weather Stations






























Interactive Weather Map
Tropical Storm Tracking
New forecast layout! Learn more

10-Day Weather Forecast

Advertisements
Track Severe Weather on mobile